Time;durP1;ratioP1;P1;durP2;ratioP2;P2;SDS_P1;SDS_P2;PMS_P1;PMS_P2;Temp;Humidity;BMP_temperature;BMP_pressure;BME280_temperature;BME280_humidity;BME280_pressure;Samples;Min_cycle;Max_cycle;Signal;HPM_P1;HPM_P2
2021/05/15 00:02:14;;;;;;;11.47;6.87;;;;;;;7.90;85.54;100044.98;128404;1101;62896;-76
2021/05/15 00:04:40;;;;;;;11.13;7.03;;;;;;;7.79;85.48;100029.54;128395;1101;62803;-77
2021/05/15 00:07:06;;;;;;;12.37;7.30;;;;;;;7.85;85.28;100042.05;128320;1101;62512;-76
2021/05/15 00:09:32;;;;;;;9.87;6.87;;;;;;;7.85;86.03;100034.95;128419;1101;62351;-76
2021/05/15 00:11:58;;;;;;;11.45;7.05;;;;;;;7.85;86.11;100034.13;128411;1101;61995;-76
2021/05/15 00:14:24;;;;;;;12.40;6.60;;;;;;;7.85;86.38;100040.23;128369;1101;62575;-74
2021/05/15 00:16:50;;;;;;;13.63;8.37;;;;;;;7.86;86.53;100039.25;128423;1101;62433;-76
2021/05/15 00:19:16;;;;;;;11.13;6.63;;;;;;;7.88;85.95;100037.23;128396;1101;62101;-74
2021/05/15 00:21:42;;;;;;;12.60;7.63;;;;;;;7.90;86.57;100035.23;128448;1101;62429;-75
2021/05/15 00:24:09;;;;;;;10.23;6.17;;;;;;;7.95;86.30;100032.09;128145;1102;63201;-75
2021/05/15 00:26:35;;;;;;;10.93;7.00;;;;;;;7.98;86.14;100028.28;128352;1101;62314;-76
2021/05/15 00:29:01;;;;;;;11.53;7.25;;;;;;;8.02;85.86;100032.22;128440;1101;62086;-75
2021/05/15 00:31:27;;;;;;;11.87;6.70;;;;;;;8.04;85.74;100033.69;128446;1101;63205;-75
2021/05/15 00:33:53;;;;;;;12.47;7.10;;;;;;;8.07;85.48;100030.68;128372;1101;62188;-76
2021/05/15 00:36:18;;;;;;;9.58;5.55;;;;;;;8.08;85.32;100032.34;128419;1101;62116;-76
2021/05/15 00:38:44;;;;;;;8.87;5.70;;;;;;;8.05;85.02;100037.95;128420;1101;62125;-76
2021/05/15 00:41:11;;;;;;;9.77;5.33;;;;;;;8.05;85.58;100037.95;128393;1101;62254;-75
2021/05/15 00:43:44;;;;;;;12.37;6.80;;;;;;;8.05;85.90;100043.23;128361;1101;62332;-76
2021/05/15 00:46:12;;;;;;;13.50;7.47;;;;;;;8.06;85.94;100039.61;128387;1101;62933;-75
2021/05/15 00:48:38;;;;;;;12.20;6.83;;;;;;;8.10;85.53;100034.81;128348;1101;62072;-75
2021/05/15 00:51:04;;;;;;;11.73;6.85;;;;;;;8.13;85.47;100037.09;128371;1101;63958;-76
2021/05/15 00:53:30;;;;;;;10.67;6.77;;;;;;;8.16;85.61;100029.65;128336;1101;62161;-77
2021/05/15 00:55:56;;;;;;;11.10;6.63;;;;;;;8.21;85.37;100023.02;128271;1101;64610;-76
2021/05/15 00:58:23;;;;;;;12.27;6.37;;;;;;;8.25;85.88;100025.13;128236;1101;62338;-76
2021/05/15 01:00:49;;;;;;;10.85;6.68;;;;;;;8.30;85.36;100029.88;128376;1101;62255;-76
2021/05/15 01:03:15;;;;;;;12.40;6.87;;;;;;;8.32;85.21;100026.05;128327;1101;62272;-76
2021/05/15 01:05:41;;;;;;;12.37;6.50;;;;;;;8.37;84.75;100025.52;128365;1101;62559;-76
2021/05/15 01:08:07;;;;;;;9.10;6.37;;;;;;;8.40;85.13;100024.37;128371;1101;63213;-76
2021/05/15 01:10:33;;;;;;;11.17;6.37;;;;;;;8.43;84.98;100024.84;128459;1101;62261;-76
2021/05/15 01:12:59;;;;;;;9.43;6.30;;;;;;;8.46;85.17;100024.51;128417;1101;62082;-76
2021/05/15 01:15:27;;;;;;;10.85;6.83;;;;;;;8.50;85.24;100022.31;128393;1101;62886;-76
2021/05/15 01:17:57;;;;;;;11.20;6.43;;;;;;;8.55;85.02;100014.69;128318;1101;63946;-74
2021/05/15 01:20:26;;;;;;;10.53;6.60;;;;;;;8.61;84.50;100010.48;128355;1101;63892;-75
2021/05/15 01:22:55;;;;;;;10.37;6.53;;;;;;;8.67;84.85;100017.70;128388;1101;62162;-75
2021/05/15 01:25:21;;;;;;;11.97;7.20;;;;;;;8.73;84.07;100011.70;128192;1101;62278;-75
2021/05/15 01:27:47;;;;;;;11.27;6.53;;;;;;;8.80;84.20;100025.02;128323;1101;62790;-75
2021/05/15 01:30:14;;;;;;;9.95;6.30;;;;;;;8.87;84.18;100010.09;128419;1101;62715;-75
2021/05/15 01:32:46;;;;;;;12.53;7.53;;;;;;;8.92;83.85;100013.83;128351;1101;62259;-75
2021/05/15 01:35:14;;;;;;;12.10;7.00;;;;;;;8.96;83.66;100007.17;128408;1101;62271;-75
2021/05/15 01:37:40;;;;;;;10.23;6.63;;;;;;;9.01;84.07;100005.81;128407;1101;62049;-76
2021/05/15 01:40:08;;;;;;;12.07;7.03;;;;;;;9.06;83.46;99998.16;128351;1101;62320;-76
2021/05/15 01:42:34;;;;;;;10.70;6.47;;;;;;;9.07;83.33;100003.25;128367;1101;62149;-75
2021/05/15 01:45:00;;;;;;;11.48;6.95;;;;;;;9.07;82.72;99999.80;128335;1101;62199;-76
2021/05/15 01:47:27;;;;;;;12.13;7.28;;;;;;;9.10;83.15;99989.67;128409;1101;62358;-76
2021/05/15 01:49:53;;;;;;;9.47;6.20;;;;;;;9.13;83.28;99983.19;128386;1101;62239;-75
2021/05/15 01:52:19;;;;;;;12.00;6.60;;;;;;;9.15;82.32;99994.41;128374;1101;62228;-76
2021/05/15 01:54:45;;;;;;;9.03;6.07;;;;;;;9.17;82.94;99984.47;128341;1101;62767;-75
2021/05/15 01:57:12;;;;;;;11.07;6.50;;;;;;;9.17;82.85;99989.77;128433;1101;62402;-76
2021/05/15 01:59:40;;;;;;;11.50;7.27;;;;;;;9.19;82.87;99982.46;128363;1101;62456;-75
2021/05/15 02:02:06;;;;;;;10.77;6.93;;;;;;;9.23;82.67;99973.16;128441;1101;62375;-75
2021/05/15 02:04:33;;;;;;;12.43;8.10;;;;;;;9.24;82.69;99974.78;128363;1101;63214;-75
2021/05/15 02:06:59;;;;;;;11.33;6.93;;;;;;;9.27;82.78;99984.20;128130;1101;62180;-75
2021/05/15 02:09:25;;;;;;;12.80;6.60;;;;;;;9.25;82.68;99973.80;128375;1101;62040;-75
2021/05/15 02:11:51;;;;;;;10.27;6.83;;;;;;;9.26;82.08;99974.61;128397;1101;63412;-74
2021/05/15 02:14:17;;;;;;;10.55;6.55;;;;;;;9.24;82.85;99980.08;128405;1101;62090;-75
2021/05/15 02:16:43;;;;;;;11.93;7.67;;;;;;;9.21;82.23;99969.88;128366;1101;62180;-74
2021/05/15 02:19:09;;;;;;;10.17;6.20;;;;;;;9.14;82.54;99964.50;128384;1101;62670;-74
2021/05/15 02:21:35;;;;;;;12.15;7.30;;;;;;;9.06;81.81;99966.42;128455;1101;62393;-74
2021/05/15 02:24:01;;;;;;;12.13;7.23;;;;;;;8.98;82.38;99960.20;128418;1101;62588;-74
2021/05/15 02:26:27;;;;;;;12.28;8.18;;;;;;;8.92;82.67;99958.28;128398;1101;62727;-74
2021/05/15 02:28:53;;;;;;;12.63;6.17;;;;;;;8.86;82.35;99956.39;128131;1101;64091;-75
2021/05/15 02:31:19;;;;;;;9.13;5.53;;;;;;;8.78;82.36;99959.11;128388;1101;62088;-75
2021/05/15 02:33:45;;;;;;;8.67;5.47;;;;;;;8.68;82.40;99959.36;128362;1101;62119;-75
2021/05/15 02:36:11;;;;;;;11.07;7.17;;;;;;;8.55;82.72;99948.59;128441;1101;62558;-75
2021/05/15 02:38:37;;;;;;;9.90;6.47;;;;;;;8.52;82.87;99949.78;128456;1101;62669;-75
2021/05/15 02:41:03;;;;;;;9.03;5.63;;;;;;;8.43;82.61;99952.67;128391;1101;62281;-75
2021/05/15 02:43:29;;;;;;;11.13;6.40;;;;;;;8.31;83.13;99957.55;128382;1101;62522;-75
2021/05/15 02:45:55;;;;;;;12.70;7.78;;;;;;;8.20;82.92;99957.95;128381;1101;61831;-75
2021/05/15 02:48:21;;;;;;;12.50;7.53;;;;;;;8.12;83.11;99962.31;128375;1101;63108;-75
2021/05/15 02:50:50;;;;;;;10.63;6.77;;;;;;;8.07;83.72;99967.28;128350;1101;62242;-76
2021/05/15 02:53:18;;;;;;;13.57;7.60;;;;;;;8.03;84.18;99959.89;128402;1101;62339;-76
2021/05/15 02:55:44;;;;;;;10.90;7.13;;;;;;;7.98;83.71;99956.97;128358;1101;62533;-76
2021/05/15 02:58:11;;;;;;;12.70;7.73;;;;;;;7.93;84.11;99965.42;128366;1101;63942;-76
2021/05/15 03:00:38;;;;;;;11.67;7.93;;;;;;;7.90;85.05;99961.30;128313;1101;62891;-76
2021/05/15 03:03:04;;;;;;;8.63;5.93;;;;;;;7.84;84.91;99955.89;128388;1101;62609;-76
2021/05/15 03:05:30;;;;;;;10.97;6.90;;;;;;;7.75;84.82;99955.94;128372;1101;62167;-76
2021/05/15 03:07:56;;;;;;;12.77;7.97;;;;;;;7.70;85.25;99963.58;128390;1101;62080;-76
2021/05/15 03:10:25;;;;;;;17.43;8.90;;;;;;;7.65;85.33;99965.08;128413;1101;62237;-76
2021/05/15 03:12:52;;;;;;;11.53;7.93;;;;;;;7.61;86.13;99967.27;128396;1101;62254;-76
2021/05/15 03:15:19;;;;;;;12.73;8.13;;;;;;;7.58;86.38;99964.95;128414;1101;62043;-76
2021/05/15 03:17:45;;;;;;;11.23;7.80;;;;;;;7.56;86.49;99969.59;128393;1101;62382;-76
2021/05/15 03:20:15;;;;;;;10.20;5.60;;;;;;;7.51;87.26;99964.02;128414;1101;62353;-76
2021/05/15 03:22:41;;;;;;;12.00;7.80;;;;;;;7.45;87.83;99968.16;128403;1101;63441;-77
2021/05/15 03:25:07;;;;;;;16.07;8.53;;;;;;;7.40;87.86;99967.05;128379;1101;62390;-76
2021/05/15 03:27:34;;;;;;;12.57;8.37;;;;;;;7.38;87.33;99966.40;128373;1101;62308;-77
2021/05/15 03:30:00;;;;;;;13.43;8.28;;;;;;;7.37;87.21;99954.19;128364;1101;62349;-77
2021/05/15 03:32:26;;;;;;;13.30;8.93;;;;;;;7.35;87.17;99951.71;128401;1101;62669;-76
2021/05/15 03:34:52;;;;;;;12.00;8.13;;;;;;;7.35;87.67;99949.92;128424;1101;62039;-77
2021/05/15 03:37:18;;;;;;;12.17;8.37;;;;;;;7.34;87.45;99945.62;128398;1101;62653;-77
2021/05/15 03:39:45;;;;;;;12.53;8.30;;;;;;;7.37;87.13;99954.19;128367;1101;62201;-77
2021/05/15 03:42:11;;;;;;;13.30;8.37;;;;;;;7.37;87.27;99956.83;128389;1101;62653;-77
2021/05/15 03:44:37;;;;;;;11.08;7.55;;;;;;;7.34;87.30;99950.89;128359;1101;62210;-77
2021/05/15 03:47:03;;;;;;;14.00;8.93;;;;;;;7.34;87.55;99953.53;128444;1101;62083;-77
2021/05/15 03:49:31;;;;;;;13.90;8.23;;;;;;;7.32;87.27;99952.88;128406;1101;62796;-77
2021/05/15 03:51:57;;;;;;;13.23;8.40;;;;;;;7.34;87.48;99950.89;128361;1101;62480;-76
2021/05/15 03:54:23;;;;;;;14.07;8.00;;;;;;;7.34;87.39;99956.17;128432;1101;62366;-76
2021/05/15 03:56:49;;;;;;;12.13;8.20;;;;;;;7.33;86.81;99959.82;128402;1101;62334;-76
2021/05/15 03:59:15;;;;;;;13.95;8.50;;;;;;;7.33;86.66;99962.45;128464;1101;62277;-76
2021/05/15 04:01:41;;;;;;;12.40;8.13;;;;;;;7.31;86.91;99959.17;128255;1101;62441;-76
2021/05/15 04:04:07;;;;;;;11.07;6.83;;;;;;;7.30;86.61;99956.69;128062;1102;62586;-75
2021/05/15 04:06:33;;;;;;;12.17;8.40;;;;;;;7.28;87.29;99961.31;128116;1101;62324;-75
2021/05/15 04:08:59;;;;;;;11.65;8.20;;;;;;;7.29;87.13;99958.52;128392;1101;62103;-76
2021/05/15 04:11:34;;;;;;;12.27;7.93;;;;;;;7.30;87.16;99965.42;128398;1101;62108;-76
2021/05/15 04:14:02;;;;;;;;;;;;;;;7.37;87.17;99965.55;128403;1101;63735;-76
2021/05/15 04:16:49;;;;;;;13.33;8.07;;;;;;;7.41;86.80;99966.86;128428;1101;62119;-76
2021/05/15 04:19:15;;;;;;;10.10;6.83;;;;;;;7.46;86.86;99963.70;128365;1101;62360;-76
2021/05/15 04:21:42;;;;;;;11.15;6.85;;;;;;;7.51;86.63;99954.28;128413;1101;62272;-76
2021/05/15 04:24:08;;;;;;;11.93;7.50;;;;;;;7.57;86.28;99960.69;128403;1101;62993;-76
2021/05/15 04:26:34;;;;;;;11.37;6.70;;;;;;;7.59;85.94;99963.98;128398;1101;63069;-76
2021/05/15 04:29:00;;;;;;;11.60;6.63;;;;;;;7.59;85.26;99952.58;128413;1101;62110;-76
2021/05/15 04:31:28;;;;;;;10.70;7.23;;;;;;;7.61;85.81;99954.07;128404;1101;62141;-76
2021/05/15 04:33:54;;;;;;;10.67;7.63;;;;;;;7.64;85.43;99955.53;128404;1101;62546;-75
2021/05/15 04:36:20;;;;;;;12.90;8.18;;;;;;;7.65;85.70;99963.29;128401;1101;62288;-75
2021/05/15 04:38:47;;;;;;;13.37;8.17;;;;;;;7.71;85.92;99962.59;128409;1101;62595;-76
2021/05/15 04:41:13;;;;;;;15.70;8.43;;;;;;;7.78;85.65;99956.59;128405;1100;62187;-76
2021/05/15 04:43:39;;;;;;;13.87;7.93;;;;;;;7.84;85.43;99964.66;128366;1101;62818;-75
2021/05/15 04:46:04;;;;;;;11.90;8.07;;;;;;;7.91;86.04;99959.50;128460;1101;62372;-76
2021/05/15 04:48:30;;;;;;;12.60;7.70;;;;;;;8.00;85.59;99953.15;128340;1101;62172;-76
2021/05/15 04:50:56;;;;;;;12.63;7.60;;;;;;;8.08;86.20;99953.09;128459;1101;62138;-76
2021/05/15 04:53:22;;;;;;;17.63;8.93;;;;;;;8.19;85.77;99948.39;128434;1101;62470;-76
2021/05/15 04:55:48;;;;;;;12.88;8.60;;;;;;;8.28;85.92;99942.84;128402;1101;62166;-77
2021/05/15 04:58:14;;;;;;;13.10;8.57;;;;;;;8.38;86.09;99942.61;128380;1101;63936;-77
2021/05/15 05:00:40;;;;;;;13.67;8.83;;;;;;;8.48;85.50;99948.50;128367;1101;62366;-77
2021/05/15 05:03:05;;;;;;;13.47;8.10;;;;;;;8.60;85.42;99955.98;128422;1101;62060;-75
2021/05/15 05:05:31;;;;;;;11.70;7.93;;;;;;;8.68;85.36;99951.43;128391;1101;62204;-76
2021/05/15 05:07:57;;;;;;;11.77;7.97;;;;;;;8.79;85.22;99950.16;128473;1101;62152;-75
2021/05/15 05:10:23;;;;;;;12.13;8.03;;;;;;;8.91;85.67;99954.00;128377;1101;62234;-74
2021/05/15 05:12:49;;;;;;;13.20;8.33;;;;;;;9.03;85.59;99958.83;128409;1101;62204;-75
2021/05/15 05:15:15;;;;;;;12.20;8.97;;;;;;;9.13;84.60;99951.44;128408;1101;62182;-76
2021/05/15 05:17:41;;;;;;;10.83;7.53;;;;;;;9.23;84.20;99953.81;128386;1101;62117;-76
2021/05/15 05:20:08;;;;;;;10.73;8.18;;;;;;;9.31;84.70;99949.23;128354;1101;62295;-76
2021/05/15 05:22:34;;;;;;;12.47;8.77;;;;;;;9.41;84.26;99953.41;128399;1101;62445;-76
2021/05/15 05:25:00;;;;;;;10.37;7.97;;;;;;;9.48;83.60;99951.66;128372;1101;62649;-76
2021/05/15 05:27:25;;;;;;;10.67;7.43;;;;;;;9.56;83.23;99947.09;128396;1101;63016;-76
2021/05/15 05:29:51;;;;;;;11.07;8.23;;;;;;;9.67;83.29;99942.30;128473;1101;62530;-76
2021/05/15 05:32:18;;;;;;;12.23;7.80;;;;;;;9.78;83.93;99950.58;128388;1101;62331;-75
2021/05/15 05:34:44;;;;;;;11.20;7.97;;;;;;;9.93;83.82;99939.92;128371;1101;62179;-75
2021/05/15 05:37:11;;;;;;;10.77;8.23;;;;;;;10.13;82.89;99941.94;128399;1101;62141;-76
2021/05/15 05:39:37;;;;;;;11.83;8.43;;;;;;;10.28;82.62;99937.37;128429;1101;62545;-75
2021/05/15 05:42:04;;;;;;;8.33;5.70;;;;;;;10.50;82.18;99940.04;128429;1101;62323;-75
2021/05/15 05:44:30;;;;;;;11.77;8.43;;;;;;;10.73;81.90;99945.06;128394;1101;62297;-76
2021/05/15 05:46:56;;;;;;;12.57;8.73;;;;;;;10.88;81.03;99939.65;128451;1101;62284;-76
2021/05/15 05:49:21;;;;;;;9.83;7.53;;;;;;;11.01;80.17;99945.05;128399;1101;62194;-76
2021/05/15 05:51:48;;;;;;;9.27;6.93;;;;;;;11.08;79.94;99945.89;128447;1101;62092;-76
2021/05/15 05:54:13;;;;;;;10.97;7.60;;;;;;;11.20;79.94;99946.17;128466;1101;62618;-75
2021/05/15 05:56:40;;;;;;;10.33;7.77;;;;;;;11.38;79.26;99951.73;128402;1101;63257;-76
2021/05/15 05:59:05;;;;;;;10.33;7.33;;;;;;;11.54;79.10;99947.93;128179;1101;62230;-76
2021/05/15 06:01:31;;;;;;;8.20;5.93;;;;;;;11.72;78.68;99957.17;128409;1101;62127;-76
2021/05/15 06:04:00;;;;;;;8.77;5.90;;;;;;;11.83;77.85;99949.41;128372;1101;62210;-76
2021/05/15 06:06:26;;;;;;;11.33;7.30;;;;;;;11.96;77.19;99947.84;128362;1101;62793;-76
2021/05/15 06:08:53;;;;;;;8.20;5.77;;;;;;;12.07;76.75;99947.27;128371;1101;62278;-76
2021/05/15 06:11:19;;;;;;;8.50;6.17;;;;;;;12.17;76.34;99952.97;128435;1101;62074;-76
2021/05/15 06:13:45;;;;;;;17.93;10.10;;;;;;;12.27;76.54;99946.45;128417;1101;62717;-76
2021/05/15 06:16:11;;;;;;;12.60;7.43;;;;;;;12.44;76.14;99939.69;128380;1101;62520;-75
2021/05/15 06:18:37;;;;;;;11.88;7.35;;;;;;;12.57;75.89;99944.98;128410;1101;62266;-76
2021/05/15 06:21:04;;;;;;;9.73;7.20;;;;;;;12.69;75.61;99937.21;128402;1101;62229;-76
2021/05/15 06:23:29;;;;;;;10.03;7.67;;;;;;;12.80;74.64;99949.06;128137;1102;62523;-76
2021/05/15 06:25:55;;;;;;;10.90;7.67;;;;;;;12.94;74.39;99956.00;128372;1102;64418;-76
2021/05/15 06:28:21;;;;;;;9.93;6.57;;;;;;;13.02;73.96;99945.10;128421;1101;62480;-76
2021/05/15 06:30:47;;;;;;;13.17;7.47;;;;;;;13.14;73.54;99944.47;128421;1101;63025;-76
2021/05/15 06:33:13;;;;;;;12.20;8.20;;;;;;;13.26;73.54;99948.13;128357;1101;62637;-76
2021/05/15 06:35:39;;;;;;;9.43;7.27;;;;;;;13.41;73.09;99946.03;128363;1101;63039;-77
2021/05/15 06:38:09;;;;;;;10.57;7.70;;;;;;;13.50;71.32;99948.46;128369;1101;62179;-77
2021/05/15 06:40:35;;;;;;;11.63;8.00;;;;;;;13.69;71.21;99944.88;128366;1101;62463;-77
2021/05/15 06:43:01;;;;;;;12.37;8.10;;;;;;;13.75;70.95;99946.69;128401;1101;63196;-76
2021/05/15 06:45:27;;;;;;;8.60;6.90;;;;;;;13.82;71.48;99944.78;128341;1101;62525;-76
2021/05/15 06:47:54;;;;;;;10.00;6.85;;;;;;;13.94;71.50;99933.42;128392;1101;62434;-76
2021/05/15 06:50:20;;;;;;;9.73;6.97;;;;;;;13.99;70.37;99930.94;128363;1101;62292;-77
2021/05/15 06:52:46;;;;;;;8.87;7.60;;;;;;;14.22;70.50;99936.52;128422;1101;62872;-75
2021/05/15 06:55:12;;;;;;;7.97;5.97;;;;;;;14.47;70.34;99943.67;128422;1101;62115;-75
2021/05/15 06:57:39;;;;;;;10.37;6.63;;;;;;;14.63;70.27;99927.14;128309;1101;62109;-75
2021/05/15 07:00:07;;;;;;;10.27;7.33;;;;;;;14.68;67.03;99937.99;128403;1101;62428;-76
2021/05/15 07:02:33;;;;;;;7.27;6.20;;;;;;;14.66;65.06;99932.05;128349;1101;62352;-75
2021/05/15 07:04:59;;;;;;;6.90;5.00;;;;;;;14.59;65.30;99928.62;128302;1101;62299;-75
2021/05/15 07:07:25;;;;;;;7.03;5.17;;;;;;;14.55;65.74;99929.25;128297;1101;62184;-76
2021/05/15 07:09:51;;;;;;;7.87;6.37;;;;;;;14.53;65.51;99926.79;128363;1101;62756;-75
2021/05/15 07:12:17;;;;;;;7.00;5.07;;;;;;;14.55;65.40;99924.75;128375;1101;62735;-77
2021/05/15 07:14:45;;;;;;;7.57;4.87;;;;;;;14.58;65.71;99923.52;128398;1101;62242;-77
2021/05/15 07:17:11;;;;;;;5.90;4.03;;;;;;;14.63;64.28;99920.99;128371;1101;62328;-77
2021/05/15 07:19:38;;;;;;;8.67;4.87;;;;;;;14.71;65.03;99914.56;128443;1101;62242;-77
2021/05/15 07:22:04;;;;;;;7.57;5.03;;;;;;;14.82;65.26;99917.30;128357;1101;62337;-76
2021/05/15 07:24:30;;;;;;;6.77;4.40;;;;;;;14.98;64.88;99913.23;128323;1101;62353;-76
2021/05/15 07:26:56;;;;;;;7.20;4.80;;;;;;;15.08;63.53;99918.04;128426;1101;62855;-76
2021/05/15 07:29:22;;;;;;;7.47;5.53;;;;;;;15.15;63.28;99908.11;128444;1101;63620;-76
2021/05/15 07:31:48;;;;;;;7.00;5.67;;;;;;;15.32;63.70;99912.81;128353;1101;62282;-76
2021/05/15 07:34:14;;;;;;;8.88;5.75;;;;;;;15.38;63.00;99907.38;128103;1101;62642;-76
2021/05/15 07:36:40;;;;;;;7.00;4.10;;;;;;;15.34;61.19;99916.89;128373;1101;62437;-76
2021/05/15 07:39:06;;;;;;;7.93;3.73;;;;;;;15.26;61.30;99906.53;128390;1101;62074;-76
2021/05/15 07:41:33;;;;;;;6.63;4.80;;;;;;;15.22;61.02;99908.83;128402;1101;63113;-76
2021/05/15 07:43:59;;;;;;;5.87;4.27;;;;;;;15.38;60.72;99907.38;128422;1101;62415;-76
2021/05/15 07:46:25;;;;;;;4.40;3.30;;;;;;;15.47;61.75;99903.38;128376;1101;62415;-76
2021/05/15 07:48:51;;;;;;;3.50;2.70;;;;;;;15.62;59.50;99896.77;128413;1101;62352;-76
2021/05/15 07:51:22;;;;;;;4.28;2.30;;;;;;;15.72;58.20;99902.42;128409;1101;62042;-76
2021/05/15 07:53:50;;;;;;;3.53;2.87;;;;;;;15.93;58.19;99901.08;128429;1101;62077;-76
2021/05/15 07:56:16;;;;;;;3.63;2.47;;;;;;;16.05;58.58;99901.12;128362;1101;62703;-77
2021/05/15 07:58:43;;;;;;;5.30;2.40;;;;;;;16.10;58.23;99899.36;128356;1101;62398;-77
2021/05/15 08:01:09;;;;;;;3.30;2.17;;;;;;;16.25;57.56;99906.13;128414;1101;63222;-77
2021/05/15 08:03:35;;;;;;;1.90;1.47;;;;;;;16.43;56.30;99899.88;128410;1101;62075;-77
2021/05/15 08:06:01;;;;;;;2.07;1.40;;;;;;;16.41;55.03;99889.39;128405;1101;61745;-77
2021/05/15 08:08:27;;;;;;;2.60;1.70;;;;;;;16.36;55.64;99891.93;128386;1101;62484;-78
2021/05/15 08:10:53;;;;;;;2.67;1.63;;;;;;;16.26;55.58;99895.20;128394;1101;62114;-76
2021/05/15 08:13:20;;;;;;;2.17;1.40;;;;;;;16.23;55.95;99892.97;128340;1101;62821;-78
2021/05/15 08:15:46;;;;;;;3.87;1.50;;;;;;;16.15;56.10;99884.48;128433;1101;62532;-78
2021/05/15 08:18:12;;;;;;;2.53;1.80;;;;;;;16.07;56.64;99891.00;128389;1101;62247;-79
2021/05/15 08:20:39;;;;;;;2.67;1.60;;;;;;;16.14;56.91;99889.02;128401;1101;62146;-80
2021/05/15 08:23:05;;;;;;;2.80;1.20;;;;;;;16.28;56.55;99879.73;128136;1101;62242;-79
2021/05/15 08:25:31;;;;;;;3.57;1.80;;;;;;;16.24;55.64;99891.94;128412;1101;62380;-79
2021/05/15 08:28:00;;;;;;;1.98;1.10;;;;;;;16.20;55.35;99893.45;128443;1101;62014;-78
2021/05/15 08:30:31;;;;;;;3.13;2.10;;;;;;;16.01;54.95;99898.08;128406;1101;62729;-78
2021/05/15 08:32:57;;;;;;;3.73;1.87;;;;;;;15.90;56.27;99888.98;128407;1101;62421;-78
2021/05/15 08:35:24;;;;;;;4.00;1.40;;;;;;;15.92;56.07;99886.09;128429;1101;62292;-78
2021/05/15 08:37:51;;;;;;;4.57;1.30;;;;;;;16.07;56.12;99888.33;128437;1101;62064;-79
2021/05/15 08:40:19;;;;;;;3.30;1.70;;;;;;;16.10;54.77;99877.95;128244;1101;62247;-79
2021/05/15 08:42:46;;;;;;;3.13;1.80;;;;;;;16.08;55.72;99876.56;128480;1101;62105;-79
2021/05/15 08:45:14;;;;;;;3.90;1.70;;;;;;;15.92;56.20;99880.75;128424;1101;62567;-79
2021/05/15 08:47:42;;;;;;;4.33;1.73;;;;;;;15.92;55.79;99877.23;128356;1101;62397;-79
2021/05/15 08:50:16;;;;;;;2.00;1.20;;;;;;;15.93;56.14;99873.53;128408;1101;62809;-79
2021/05/15 08:52:45;;;;;;;2.10;1.20;;;;;;;16.14;57.01;99867.61;128391;1101;62139;-79
2021/05/15 08:55:14;;;;;;;3.70;1.50;;;;;;;16.40;56.37;99860.98;128417;1101;62389;-79
2021/05/15 08:57:41;;;;;;;2.90;1.60;;;;;;;16.75;56.00;99862.81;128439;1101;63006;-79
2021/05/15 09:00:11;;;;;;;3.53;1.33;;;;;;;17.06;55.07;99852.73;128397;1101;62257;-79
2021/05/15 09:02:39;;;;;;;3.13;1.40;;;;;;;17.39;51.67;99864.63;128453;1101;62213;-79
2021/05/15 09:05:13;;;;;;;1.40;0.90;;;;;;;17.41;51.52;99857.16;128423;1101;62464;-78
2021/05/15 09:07:40;;;;;;;1.60;0.90;;;;;;;17.34;51.46;99851.95;128419;1101;62286;-78
2021/05/15 09:10:08;;;;;;;1.83;1.10;;;;;;;17.31;53.04;99845.17;128379;1101;63208;-78
2021/05/15 09:12:35;;;;;;;2.33;1.20;;;;;;;17.27;52.59;99838.66;128392;1101;62259;-79
2021/05/15 09:15:07;;;;;;;1.80;0.80;;;;;;;17.29;53.11;99833.07;128366;1101;62293;-78
2021/05/15 09:17:48;;;;;;;0.87;0.50;;;;;;;17.18;52.66;99834.75;128386;1101;62155;-78
2021/05/15 09:20:29;;;;;;;3.05;1.20;;;;;;;16.93;52.40;99843.11;128428;1101;62076;-79
2021/05/15 09:22:56;;;;;;;2.07;0.87;;;;;;;16.73;53.86;99838.13;128404;1101;62220;-77
2021/05/15 09:25:23;;;;;;;1.40;1.00;;;;;;;16.51;54.38;99840.59;128323;1101;63403;-76
2021/05/15 09:27:50;;;;;;;3.00;0.80;;;;;;;16.36;55.36;99829.56;128356;1101;62594;-77
2021/05/15 09:30:17;;;;;;;1.57;0.83;;;;;;;16.27;55.62;99837.94;128395;1101;62319;-77
2021/05/15 09:32:44;;;;;;;1.93;0.83;;;;;;;16.16;54.80;99833.41;128436;1101;62131;-77
2021/05/15 09:35:22;;;;;;;2.60;0.80;;;;;;;16.00;55.52;99840.28;128383;1101;62463;-77
2021/05/15 09:37:50;;;;;;;3.93;1.03;;;;;;;15.88;55.97;99834.91;128393;1101;62261;-77
2021/05/15 09:40:21;;;;;;;2.07;0.60;;;;;;;15.82;55.40;99835.83;128393;1101;62924;-76
2021/05/15 09:43:08;;;;;;;1.80;0.70;;;;;;;15.76;55.43;99820.70;128350;1101;62231;-76
2021/05/15 09:45:37;;;;;;;1.33;0.77;;;;;;;15.79;55.46;99816.75;128370;1101;63058;-77
2021/05/15 09:48:10;;;;;;;1.60;0.80;;;;;;;15.81;56.33;99818.17;128404;1101;62652;-78
2021/05/15 09:50:40;;;;;;;1.90;0.80;;;;;;;15.78;57.64;99821.29;128350;1101;62330;-82
2021/05/15 09:53:11;;;;;;;1.93;0.70;;;;;;;15.79;59.28;99814.91;128236;1101;62332;-82
2021/05/15 09:55:43;;;;;;;1.90;0.90;;;;;;;15.65;57.44;99819.61;128485;1101;62203;-81
2021/05/15 09:58:11;;;;;;;2.27;0.67;;;;;;;15.36;54.26;99820.47;128460;1101;62462;-82
2021/05/15 10:00:50;;;;;;;0.80;0.37;;;;;;;15.04;53.88;99829.52;128447;1101;63333;-81
2021/05/15 10:03:29;;;;;;;2.10;0.50;;;;;;;14.43;57.52;99825.09;128474;1101;62810;-81
2021/05/15 10:06:15;;;;;;;1.50;0.50;;;;;;;14.23;58.95;99810.09;128429;1101;62800;-77
2021/05/15 10:08:43;;;;;;;0.60;0.40;;;;;;;13.91;58.37;99811.22;128388;1101;62582;-76
2021/05/15 10:11:11;;;;;;;0.60;0.30;;;;;;;13.69;59.69;99813.47;128381;1101;62409;-76
2021/05/15 10:13:40;;;;;;;0.80;0.40;;;;;;;13.48;61.00;99796.80;128107;1102;62834;-76
2021/05/15 10:16:07;;;;;;;1.77;0.50;;;;;;;13.34;61.17;99800.58;128393;1101;62349;-81
2021/05/15 10:18:38;;;;;;;0.47;0.27;;;;;;;13.21;62.43;99798.78;128464;1101;62007;-81
2021/05/15 10:21:05;;;;;;;1.43;0.40;;;;;;;13.10;62.76;99802.13;128332;1101;62062;-80
2021/05/15 10:23:38;;;;;;;0.40;0.20;;;;;;;12.95;62.78;99808.55;128338;1101;64153;-79
2021/05/15 10:26:16;;;;;;;3.20;0.30;;;;;;;12.82;64.44;99811.27;128434;1101;62252;-77
2021/05/15 10:28:45;;;;;;;0.90;0.50;;;;;;;12.61;65.39;99826.48;128287;1101;62453;-79
2021/05/15 10:31:17;;;;;;;2.90;0.60;;;;;;;12.42;67.38;99820.19;128351;1101;64308;-79
2021/05/15 10:33:47;;;;;;;1.00;0.40;;;;;;;12.24;69.30;99826.17;128133;1101;62145;-79
2021/05/15 10:36:22;;;;;;;4.93;0.83;;;;;;;12.07;70.42;99814.34;128411;1101;62040;-80
2021/05/15 10:38:52;;;;;;;4.03;0.80;;;;;;;11.96;72.02;99804.31;128419;1101;62305;-77
2021/05/15 10:41:25;;;;;;;2.83;0.70;;;;;;;11.95;71.68;99797.38;128344;1101;62503;-75
2021/05/15 10:43:55;;;;;;;2.80;0.70;;;;;;;12.07;70.98;99790.41;128338;1101;62343;-75
2021/05/15 10:46:28;;;;;;;1.10;0.47;;;;;;;12.40;72.84;99782.34;128355;1101;62411;-79
2021/05/15 10:48:59;;;;;;;0.97;0.50;;;;;;;12.94;74.39;99768.81;128371;1101;62682;-77
2021/05/15 10:51:31;;;;;;;0.43;0.30;;;;;;;13.56;73.78;99766.41;128303;1101;62322;-78
2021/05/15 10:53:59;;;;;;;7.10;4.33;;;;;;;14.21;67.70;99763.34;128295;1101;62346;-78
2021/05/15 10:56:41;;;;;;;13.17;7.47;;;;;;;14.87;64.37;99765.23;128323;1101;63661;-80
2021/05/15 10:59:12;;;;;;;14.47;9.77;;;;;;;15.32;63.19;99757.83;128403;1101;63021;-80
2021/05/15 11:01:55;;;;;;;5.10;1.63;;;;;;;15.55;60.08;99757.06;128157;1101;63235;-80
2021/05/15 11:04:27;;;;;;;0.53;0.27;;;;;;;15.68;57.48;99751.48;128437;1101;62211;-76
2021/05/15 11:07:00;;;;;;;0.40;0.20;;;;;;;15.70;56.03;99749.40;128302;1101;62369;-76
2021/05/15 11:09:30;;;;;;;1.27;0.40;;;;;;;15.66;57.00;99749.06;128285;1101;64013;-76
2021/05/15 11:12:10;;;;;;;0.70;0.20;;;;;;;15.54;54.78;99744.76;128373;1101;62413;-76
2021/05/15 11:14:45;;;;;;;0.77;0.30;;;;;;;15.58;54.85;99743.25;128397;1101;62336;-76
2021/05/15 11:17:31;;;;;;;0.20;0.20;;;;;;;15.80;56.99;99741.65;128403;1101;63217;-76
2021/05/15 11:20:19;;;;;;;1.00;0.57;;;;;;;15.96;58.44;99752.69;128359;1101;62623;-76
2021/05/15 11:22:53;;;;;;;1.00;0.67;;;;;;;15.94;58.64;99749.43;128360;1101;62955;-76
2021/05/15 11:25:28;;;;;;;1.27;0.73;;;;;;;15.65;59.93;99770.68;128344;1101;62319;-75
2021/05/15 11:28:03;;;;;;;1.07;0.60;;;;;;;15.23;60.42;99770.70;128338;1101;62211;-75